Time;durP1;ratioP1;P1;durP2;ratioP2;P2;SDS_P1;SDS_P2;PMS_P1;PMS_P2;Temp;Humidity;BMP_temperature;BMP_pressure;BME280_temperature;BME280_humidity;BME280_pressure;Samples;Min_cycle;Max_cycle;Signal;HPM_P1;HPM_P2
2023/10/12 00:02:26;;;;;;;11.85;7.15;;;17.10;93.90;;;;;;4860517;29;20060;-83
2023/10/12 00:05:00;;;;;;;9.00;5.78;;;17.10;94.00;;;;;;4864390;29;20137;-83
2023/10/12 00:07:33;;;;;;;10.52;6.70;;;17.00;94.10;;;;;;4848246;29;20064;-83
2023/10/12 00:12:44;;;;;;;11.00;7.78;;;16.90;94.40;;;;;;4872382;29;20047;-83
2023/10/12 00:15:28;;;;;;;;;;;16.90;94.50;;;;;;4861863;29;20049;-83
2023/10/12 00:17:58;;;;;;;10.68;6.13;;;16.80;94.60;;;;;;4876476;29;19967;-83
2023/10/12 00:25:59;;;;;;;12.25;6.53;;;16.90;94.70;;;;;;4845343;29;20057;-83
2023/10/12 00:28:37;;;;;;;10.60;6.15;;;16.90;94.70;;;;;;4860296;29;20518;-83
2023/10/12 00:31:12;;;;;;;13.63;7.63;;;16.90;94.80;;;;;;4866531;29;20139;-83
2023/10/12 00:33:39;;;;;;;15.85;8.27;;;16.80;94.80;;;;;;4878455;29;20041;-83
2023/10/12 00:36:19;;;;;;;12.68;7.40;;;16.80;95.00;;;;;;4847867;29;20481;-83
2023/10/12 00:38:47;;;;;;;15.18;8.70;;;16.90;95.10;;;;;;4862519;29;20419;-83
2023/10/12 00:41:17;;;;;;;15.00;8.70;;;16.80;95.20;;;;;;4875169;29;20054;-83
2023/10/12 00:43:57;;;;;;;13.98;8.27;;;16.80;95.50;;;;;;4875335;29;20508;-83
2023/10/12 00:49:13;;;;;;;14.77;8.93;;;16.80;95.30;;;;;;4859850;29;20167;-83
2023/10/12 00:52:08;;;;;;;11.48;7.18;;;16.80;95.40;;;;;;4846682;29;20127;-83
2023/10/12 00:57:11;;;;;;;11.65;7.55;;;16.80;95.40;;;;;;4869327;29;20124;-83
2023/10/12 00:59:39;;;;;;;10.95;6.25;;;16.70;95.50;;;;;;4852502;29;20141;-83
2023/10/12 01:02:15;;;;;;;13.27;6.60;;;16.70;95.50;;;;;;4830291;29;20045;-83
2023/10/12 01:04:48;;;;;;;14.13;8.15;;;16.70;95.60;;;;;;4872572;29;20097;-84
2023/10/12 01:07:25;;;;;;;13.52;8.13;;;16.60;95.70;;;;;;4875298;29;20148;-83
2023/10/12 01:10:03;;;;;;;14.40;9.38;;;16.60;95.90;;;;;;4862401;29;20084;-84
2023/10/12 01:12:32;;;;;;;14.98;7.75;;;16.70;96.00;;;;;;4846292;29;20049;-84
2023/10/12 01:15:06;;;;;;;15.05;9.20;;;16.70;96.00;;;;;;4860207;29;20054;-84
2023/10/12 01:17:34;;;;;;;21.75;11.25;;;16.60;96.10;;;;;;4875146;29;20046;-84
2023/10/12 01:20:26;;;;;;;16.75;10.40;;;16.60;96.30;;;;;;4845310;29;20377;-85
2023/10/12 01:22:53;;;;;;;26.20;13.20;;;16.60;96.40;;;;;;4865816;29;20496;-86
2023/10/12 01:25:27;;;;;;;18.45;12.13;;;16.60;96.60;;;;;;4875788;29;20045;-86
2023/10/12 01:27:55;;;;;;;17.23;11.45;;;16.60;96.80;;;;;;4861033;29;20049;-89
2023/10/12 01:30:32;;;;;;;20.30;12.70;;;16.60;96.90;;;;;;4860881;29;20068;-89
2023/10/12 01:33:13;;;;;;;19.73;12.20;;;16.60;97.10;;;;;;4860996;29;20101;-91
2023/10/12 01:41:09;;;;;;;22.02;12.48;;;16.60;97.10;;;;;;4844322;29;20045;-90
2023/10/12 01:44:00;;;;;;;19.60;12.20;;;16.50;97.20;;;;;;4816841;29;20053;-95
2023/10/12 01:46:30;;;;;;;24.38;14.07;;;16.50;97.30;;;;;;4848374;29;20045;-89
2023/10/12 01:48:57;;;;;;;23.23;13.63;;;16.50;97.60;;;;;;4894301;29;20132;-89
2023/10/12 01:51:25;;;;;;;23.60;13.27;;;16.50;97.60;;;;;;4859903;29;20136;-88
2023/10/12 01:53:56;;;;;;;21.65;13.25;;;16.50;97.60;;;;;;4860426;29;20057;-88
2023/10/12 01:56:28;;;;;;;21.75;13.50;;;16.50;97.60;;;;;;4860414;29;20156;-88
2023/10/12 01:58:55;;;;;;;19.48;13.30;;;16.50;97.80;;;;;;4860333;29;20049;-87
2023/10/12 02:01:24;;;;;;;22.35;13.63;;;16.50;97.90;;;;;;4860330;29;20084;-87
2023/10/12 02:03:55;;;;;;;21.63;12.68;;;16.50;98.00;;;;;;4860437;29;20048;-86
2023/10/12 02:06:28;;;;;;;19.88;12.55;;;16.50;98.00;;;;;;4860190;29;20045;-86
2023/10/12 02:09:02;;;;;;;18.95;13.73;;;16.50;98.10;;;;;;4830530;29;20496;-86
2023/10/12 02:11:45;;;;;;;18.13;12.40;;;16.50;98.10;;;;;;4845825;29;20057;-86
2023/10/12 02:14:19;;;;;;;23.13;12.93;;;16.50;98.20;;;;;;4863632;29;20110;-87
2023/10/12 02:16:54;;;;;;;22.95;13.98;;;16.50;98.50;;;;;;4864884;29;20077;-86
2023/10/12 02:22:24;;;;;;;17.45;11.63;;;16.50;98.30;;;;;;4865280;29;20049;-87
2023/10/12 02:24:59;;;;;;;20.52;10.38;;;16.50;98.30;;;;;;4884031;29;20102;-87
2023/10/12 02:27:26;;;;;;;16.17;10.77;;;16.50;98.20;;;;;;4849632;29;21293;-88
2023/10/12 02:29:56;;;;;;;16.73;9.55;;;16.50;98.50;;;;;;4850440;29;20092;-88
2023/10/12 02:32:24;;;;;;;14.45;8.25;;;16.40;98.20;;;;;;4855551;29;20057;-87
2023/10/12 02:35:00;;;;;;;10.77;6.88;;;16.50;98.30;;;;;;4886451;29;20048;-87
2023/10/12 02:37:28;;;;;;;12.85;8.00;;;16.40;98.20;;;;;;4855071;29;20100;-88
2023/10/12 02:39:56;;;;;;;11.35;7.03;;;16.40;98.30;;;;;;4854215;29;20072;-88
2023/10/12 02:42:38;;;;;;;12.43;7.65;;;16.40;98.30;;;;;;4851407;29;20045;-88
2023/10/12 02:45:16;;;;;;;14.15;7.40;;;16.50;98.30;;;;;;4866979;29;20045;-88
2023/10/12 02:47:47;;;;;;;12.13;7.22;;;16.40;98.30;;;;;;4881580;29;20496;-88
2023/10/12 02:50:32;;;;;;;13.73;7.70;;;16.50;98.30;;;;;;4866678;29;20056;-88
2023/10/12 02:53:08;;;;;;;14.23;7.45;;;16.50;98.30;;;;;;4866036;29;20044;-88
2023/10/12 02:55:49;;;;;;;12.70;7.60;;;16.40;98.30;;;;;;4866364;29;20060;-88
2023/10/12 02:58:27;;;;;;;13.38;7.18;;;16.40;98.30;;;;;;4867156;29;20060;-88
2023/10/12 03:01:00;;;;;;;16.67;7.68;;;16.40;98.40;;;;;;4866498;29;20052;-88
2023/10/12 03:06:07;;;;;;;13.70;6.10;;;16.30;98.30;;;;;;4867424;29;20045;-90
2023/10/12 03:09:26;;;;;;;14.68;6.28;;;16.30;98.40;;;;;;4884306;29;20313;-92
2023/10/12 03:11:26;;;;;;;13.20;7.38;;;16.20;98.50;;;;;;4882799;29;20064;-91
2023/10/12 03:14:13;;;;;;;9.95;5.75;;;16.20;98.50;;;;;;4892313;29;20040;-90
2023/10/12 03:16:46;;;;;;;9.82;5.95;;;16.10;98.50;;;;;;4867095;29;20132;-90
2023/10/12 03:19:35;;;;;;;7.25;4.63;;;16.10;98.60;;;;;;4881645;29;20126;-90
2023/10/12 03:22:23;;;;;;;8.98;4.75;;;16.20;98.60;;;;;;4867616;29;20049;-88
2023/10/12 03:24:52;;;;;;;8.40;4.32;;;16.10;98.50;;;;;;4866482;29;20074;-89
2023/10/12 03:27:23;;;;;;;8.32;4.15;;;16.20;98.50;;;;;;4866114;29;20121;-90
2023/10/12 03:30:24;;;;;;;6.65;4.05;;;16.20;98.50;;;;;;4869209;29;20061;-90
2023/10/12 03:32:57;;;;;;;8.73;5.03;;;16.20;98.50;;;;;;4859014;29;20060;-90
2023/10/12 03:35:33;;;;;;;6.97;3.78;;;16.20;98.40;;;;;;4886113;29;20049;-90
2023/10/12 03:38:12;;;;;;;5.88;3.65;;;16.20;98.40;;;;;;4865747;29;20049;-89
2023/10/12 03:43:27;;;;;;;7.88;3.80;;;16.20;98.50;;;;;;4865318;29;20041;-89
2023/10/12 03:46:07;;;;;;;6.75;3.05;;;16.20;98.40;;;;;;4865873;29;20123;-89
2023/10/12 03:49:04;;;;;;;7.13;3.65;;;16.20;98.40;;;;;;4850331;29;20049;-89
2023/10/12 03:51:41;;;;;;;6.68;3.08;;;16.30;98.40;;;;;;4865447;29;20147;-88
2023/10/12 03:54:25;;;;;;;5.22;2.92;;;16.30;98.40;;;;;;4849999;29;20052;-88
2023/10/12 03:57:19;;;;;;;7.50;3.67;;;16.30;98.40;;;;;;4865465;29;20511;-88
2023/10/12 04:00:23;;;;;;;6.13;2.80;;;16.30;98.40;;;;;;4865385;29;20057;-88
2023/10/12 04:06:07;;;;;;;4.53;2.65;;;16.30;98.30;;;;;;4880306;29;20132;-89
2023/10/12 04:21:28;;;;;;;5.53;2.78;;;16.30;98.40;;;;;;4864560;29;20077;-88
2023/10/12 04:26:38;;;;;;;6.93;3.00;;;16.30;98.40;;;;;;4889667;29;20053;-89
2023/10/12 04:29:21;;;;;;;6.22;2.30;;;16.30;98.40;;;;;;4852270;29;20057;-88
2023/10/12 04:31:56;;;;;;;3.95;2.28;;;16.30;98.40;;;;;;4865266;29;20132;-89
2023/10/12 04:34:34;;;;;;;4.00;1.92;;;16.30;98.50;;;;;;4852145;29;20077;-89
2023/10/12 04:37:09;;;;;;;6.05;2.83;;;16.30;98.40;;;;;;4864283;29;20053;-89
2023/10/12 04:39:48;;;;;;;5.93;2.45;;;16.30;98.40;;;;;;4867965;29;20059;-89
2023/10/12 04:42:23;;;;;;;10.55;2.95;;;16.30;98.40;;;;;;4864982;29;20117;-89
2023/10/12 04:45:09;;;;;;;4.95;2.65;;;16.30;98.50;;;;;;4876480;29;20049;-89
2023/10/12 04:47:57;;;;;;;5.32;2.28;;;16.30;98.50;;;;;;4864885;29;20080;-89
2023/10/12 04:50:43;;;;;;;4.55;2.50;;;16.30;98.50;;;;;;4864220;29;20053;-89
2023/10/12 04:53:14;;;;;;;7.55;2.85;;;16.30;98.50;;;;;;4864157;29;20091;-88
2023/10/12 04:55:50;;;;;;;5.95;2.63;;;16.30;98.50;;;;;;4864432;29;20105;-88
2023/10/12 04:58:32;;;;;;;8.23;2.75;;;16.30;98.40;;;;;;4863849;29;20139;-88
2023/10/12 05:01:19;;;;;;;5.72;2.83;;;16.20;98.40;;;;;;4864700;29;20080;-88
2023/10/12 05:04:08;;;;;;;6.05;3.17;;;16.30;98.50;;;;;;4864077;29;20452;-88
2023/10/12 05:06:56;;;;;;;5.82;2.45;;;16.30;98.50;;;;;;4863860;29;20175;-88
2023/10/12 05:09:26;;;;;;;5.65;2.92;;;16.20;98.50;;;;;;4864152;29;20069;-88
2023/10/12 05:11:56;;;;;;;8.73;3.15;;;16.20;98.40;;;;;;4863791;29;20136;-88
2023/10/12 05:14:33;;;;;;;5.63;2.50;;;16.20;98.40;;;;;;4863804;29;20060;-88
2023/10/12 05:17:00;;;;;;;6.80;2.97;;;16.20;98.50;;;;;;4863843;29;20128;-88
2023/10/12 05:19:31;;;;;;;5.70;2.95;;;16.20;98.50;;;;;;4864599;29;20060;-88
2023/10/12 05:22:02;;;;;;;6.03;2.80;;;16.20;98.50;;;;;;4851227;29;20101;-89
2023/10/12 05:24:32;;;;;;;11.57;3.60;;;16.10;98.50;;;;;;4874343;29;20136;-88
2023/10/12 05:27:23;;;;;;;6.68;3.25;;;16.10;98.50;;;;;;4863858;29;20052;-88
2023/10/12 05:29:59;;;;;;;6.22;2.75;;;16.10;98.50;;;;;;4855262;29;20076;-88
2023/10/12 05:32:37;;;;;;;5.00;2.70;;;16.10;98.50;;;;;;4852281;29;20101;-88
2023/10/12 05:35:15;;;;;;;5.68;3.05;;;16.10;98.60;;;;;;4864382;29;20049;-88
2023/10/12 05:37:50;;;;;;;5.50;2.72;;;16.10;98.50;;;;;;4863681;29;20101;-87
2023/10/12 05:40:18;;;;;;;4.97;2.58;;;16.20;98.60;;;;;;4863489;29;20135;-87
2023/10/12 05:42:50;;;;;;;5.10;2.40;;;16.10;98.50;;;;;;4848269;29;20059;-87
2023/10/12 05:45:31;;;;;;;5.82;3.03;;;16.20;98.50;;;;;;4863578;29;20057;-87
2023/10/12 05:47:58;;;;;;;5.43;2.60;;;16.20;98.50;;;;;;4865871;29;20047;-87
2023/10/12 05:50:30;;;;;;;6.88;2.85;;;16.20;98.50;;;;;;4867407;29;20466;-87
2023/10/12 05:53:00;;;;;;;7.50;4.13;;;16.20;98.50;;;;;;4866943;29;20127;-87
2023/10/12 05:55:28;;;;;;;10.15;4.65;;;16.20;98.50;;;;;;4840654;29;20053;-88
2023/10/12 05:58:06;;;;;;;12.18;6.38;;;16.20;98.60;;;;;;4864181;29;20464;-87
2023/10/12 06:00:56;;;;;;;10.75;6.43;;;16.10;98.50;;;;;;4871317;29;20127;-93
2023/10/12 06:03:24;;;;;;;9.00;5.18;;;16.10;98.60;;;;;;4867596;29;20049;-89
2023/10/12 06:05:54;;;;;;;9.30;4.68;;;16.10;98.60;;;;;;4873463;29;20036;-89
2023/10/12 06:08:26;;;;;;;7.72;3.90;;;16.10;98.60;;;;;;4851937;29;20105;-96
2023/10/12 06:10:58;;;;;;;6.38;3.30;;;16.10;98.70;;;;;;4853181;29;20049;-87
2023/10/12 06:13:39;;;;;;;4.05;2.05;;;16.10;98.70;;;;;;4866987;29;20503;-90
2023/10/12 06:16:14;;;;;;;2.58;1.10;;;16.00;98.60;;;;;;4861519;29;20053;-89
2023/10/12 06:18:46;;;;;;;1.77;0.70;;;15.80;98.60;;;;;;4854457;29;20045;-88
2023/10/12 06:21:22;;;;;;;2.35;0.55;;;15.60;98.80;;;;;;4882038;29;20049;-89
2023/10/12 06:23:56;;;;;;;1.63;0.50;;;15.40;98.90;;;;;;4867924;29;20053;-88
2023/10/12 06:26:28;;;;;;;1.63;0.40;;;15.30;99.00;;;;;;4867301;29;20150;-89
2023/10/12 06:28:57;;;;;;;0.95;0.30;;;15.30;99.10;;;;;;4866823;29;20042;-88
2023/10/12 06:31:25;;;;;;;1.30;0.40;;;15.10;99.00;;;;;;4881717;29;20140;-88
2023/10/12 06:33:55;;;;;;;0.90;0.35;;;14.90;99.10;;;;;;4882143;29;20081;-87
2023/10/12 06:36:44;;;;;;;1.00;0.45;;;14.80;99.20;;;;;;4871178;29;20060;-87
2023/10/12 06:44:27;;;;;;;1.08;0.47;;;14.40;99.30;;;;;;4863006;29;20050;-87
2023/10/12 06:46:58;;;;;;;1.77;0.40;;;14.30;99.50;;;;;;4881504;29;20105;-88
2023/10/12 06:49:29;;;;;;;1.92;0.70;;;14.30;99.50;;;;;;4850654;29;20083;-87
2023/10/12 06:52:03;;;;;;;1.48;0.30;;;14.20;99.50;;;;;;4836705;29;20099;-88
2023/10/12 06:54:49;;;;;;;3.72;0.57;;;14.10;99.50;;;;;;4879562;29;20062;-87
2023/10/12 07:02:30;;;;;;;1.52;0.55;;;14.10;99.50;;;;;;4869201;29;20089;-92
2023/10/12 07:05:04;;;;;;;2.65;0.50;;;14.00;99.50;;;;;;4866293;29;20049;-92
2023/10/12 07:07:41;;;;;;;1.92;0.50;;;14.10;99.40;;;;;;4881588;29;20053;-92
2023/10/12 07:12:48;;;;;;;3.33;0.40;;;14.00;99.40;;;;;;4881228;29;20457;-91
2023/10/12 07:15:21;;;;;;;2.78;0.55;;;14.10;99.40;;;;;;4866225;29;20049;-91
2023/10/12 07:17:53;;;;;;;2.50;0.40;;;14.10;99.60;;;;;;4866073;29;20053;-92
2023/10/12 07:20:40;;;;;;;;;;;14.10;99.30;;;;;;4853253;29;20056;-92
2023/10/12 07:23:14;;;;;;;1.83;0.40;;;14.10;99.30;;;;;;4854176;29;19975;-89
2023/10/12 07:25:43;;;;;;;1.42;0.50;;;14.20;99.30;;;;;;4853403;29;20052;-88
2023/10/12 07:28:19;;;;;;;3.92;0.40;;;14.20;99.20;;;;;;4865376;29;20049;-88
2023/10/12 07:33:32;;;;;;;1.92;0.40;;;14.20;99.20;;;;;;4865236;29;20048;-88
2023/10/12 07:36:11;;;;;;;2.97;0.65;;;14.20;99.20;;;;;;4865331;29;20052;-88
2023/10/12 07:38:40;;;;;;;2.03;0.50;;;14.20;99.20;;;;;;4865433;29;20136;-89
2023/10/12 07:41:10;;;;;;;1.92;0.50;;;14.30;99.20;;;;;;4853720;29;20105;-90
2023/10/12 07:43:38;;;;;;;1.38;0.22;;;14.30;99.10;;;;;;4865622;29;20049;-88
2023/10/12 07:46:24;;;;;;;1.63;0.68;;;14.20;99.10;;;;;;4868023;29;20065;-88
2023/10/12 07:48:52;;;;;;;1.65;0.43;;;14.20;99.10;;;;;;4869956;29;20117;-87
2023/10/12 07:51:24;;;;;;;3.00;0.40;;;14.30;99.10;;;;;;4881109;29;20085;-88
2023/10/12 07:54:00;;;;;;;1.15;0.20;;;14.30;99.10;;;;;;4876702;29;20061;-89
2023/10/12 07:56:33;;;;;;;1.58;0.30;;;14.30;99.10;;;;;;4885327;29;20057;-87
2023/10/12 07:59:01;;;;;;;0.70;0.30;;;14.30;99.00;;;;;;4852229;29;20109;-91
2023/10/12 08:03:59;;;;;;;1.65;0.22;;;14.40;99.00;;;;;;4866412;29;20061;-89
2023/10/12 08:06:56;;;;;;;1.58;0.20;;;14.40;99.00;;;;;;4869031;29;20048;-91
2023/10/12 08:11:54;;;;;;;1.10;0.20;;;14.40;98.90;;;;;;4880939;29;20060;-89
2023/10/12 08:19:43;;;;;;;1.85;0.15;;;14.40;98.90;;;;;;4860907;29;20071;-88
2023/10/12 08:22:26;;;;;;;0.20;0.10;;;14.40;98.90;;;;;;4864306;29;20049;-87
2023/10/12 08:24:58;;;;;;;1.17;0.13;;;14.40;98.90;;;;;;4864792;29;20037;-89
2023/10/12 08:27:26;;;;;;;0.77;0.10;;;14.40;98.90;;;;;;4879908;29;20053;-87
2023/10/12 08:37:26;;;;;;;0.70;0.10;;;14.50;98.80;;;;;;4879603;29;20045;-88
2023/10/12 08:42:37;;;;;;;0.30;0.10;;;14.50;98.80;;;;;;4877864;29;20053;-91
2023/10/12 08:45:09;;;;;;;0.00;0.00;;;14.50;98.80;;;;;;4849024;29;20068;-89
2023/10/12 08:52:55;;;;;;;0.38;0.10;;;14.60;98.70;;;;;;4892055;29;20172;-89
2023/10/12 08:55:31;;;;;;;;;;;14.60;98.70;;;;;;4861508;29;20057;-88
2023/10/12 08:58:30;;;;;;;0.10;0.08;;;14.50;98.70;;;;;;4890373;29;19927;-86
2023/10/12 09:03:37;;;;;;;0.98;0.10;;;14.50;98.70;;;;;;4879373;29;20056;-89
2023/10/12 09:09:01;;;;;;;0.50;0.20;;;14.50;98.60;;;;;;4865705;29;20499;-89
2023/10/12 09:11:59;;;;;;;0.20;0.10;;;14.50;98.70;;;;;;4848441;29;20057;-92
2023/10/12 09:14:32;;;;;;;1.85;0.10;;;14.50;98.60;;;;;;4887842;29;20062;-94
2023/10/12 09:17:33;;;;;;;0.17;0.10;;;14.50;98.70;;;;;;4875855;29;20512;-94
2023/10/12 09:22:56;;;;;;;0.55;0.10;;;14.50;98.60;;;;;;4863801;29;20088;-88
2023/10/12 09:25:59;;;;;;;0.10;0.10;;;14.50;98.70;;;;;;4865769;29;20084;-88
2023/10/12 09:28:38;;;;;;;0.20;0.10;;;14.50;98.70;;;;;;4869713;29;20049;-86
2023/10/12 09:31:09;;;;;;;0.43;0.13;;;14.60;98.60;;;;;;4848874;29;20097;-91
2023/10/12 09:36:23;;;;;;;0.75;0.10;;;14.60;98.60;;;;;;4879338;29;20059;-92
2023/10/12 09:38:55;;;;;;;0.20;0.10;;;14.60;98.60;;;;;;4869400;29;20398;-88
2023/10/12 09:41:34;;;;;;;0.88;0.20;;;14.60;98.60;;;;;;4852744;29;20053;-88
2023/10/12 09:44:07;;;;;;;0.40;0.10;;;14.60;98.60;;;;;;4863415;29;20045;-89
2023/10/12 09:46:37;;;;;;;1.33;0.20;;;14.70;98.60;;;;;;4877641;29;20045;-86
2023/10/12 09:49:07;;;;;;;0.47;0.28;;;14.70;98.60;;;;;;4858953;29;20048;-86
2023/10/12 09:51:45;;;;;;;0.55;0.20;;;14.70;98.60;;;;;;4881494;29;20052;-91
2023/10/12 09:54:27;;;;;;;0.52;0.20;;;14.70;98.50;;;;;;4879524;29;20049;-89
2023/10/12 09:57:16;;;;;;;0.35;0.15;;;14.80;98.50;;;;;;4883343;29;20057;-90
2023/10/12 09:59:52;;;;;;;0.32;0.20;;;14.80;98.40;;;;;;4868295;29;20085;-88
2023/10/12 10:02:32;;;;;;;0.63;0.20;;;14.80;98.40;;;;;;4848072;29;20166;-88
2023/10/12 10:05:11;;;;;;;0.65;0.30;;;14.80;98.40;;;;;;4860562;29;20142;-96
2023/10/12 10:07:53;;;;;;;1.33;0.30;;;14.80;98.40;;;;;;4879003;29;20101;-91
2023/10/12 10:10:34;;;;;;;0.88;0.20;;;14.80;98.40;;;;;;4865136;29;20044;-93
2023/10/12 10:13:20;;;;;;;1.05;0.30;;;14.80;98.50;;;;;;4879046;29;20049;-89
2023/10/12 10:15:59;;;;;;;2.33;0.40;;;14.80;98.40;;;;;;4863434;29;20056;-93
2023/10/12 10:18:28;;;;;;;1.52;0.40;;;14.80;98.40;;;;;;4878258;29;20057;-94
2023/10/12 10:21:06;;;;;;;0.63;0.20;;;14.80;98.50;;;;;;4863490;29;20053;-92
2023/10/12 10:23:37;;;;;;;1.50;0.43;;;14.80;98.50;;;;;;4848203;29;20128;-92
2023/10/12 10:26:31;;;;;;;1.67;0.60;;;14.90;98.50;;;;;;4863836;29;20073;-93
2023/10/12 10:29:07;;;;;;;2.78;0.52;;;14.90;98.40;;;;;;4863560;29;20050;-93
2023/10/12 10:31:41;;;;;;;1.30;0.45;;;14.90;98.40;;;;;;4863384;29;20057;-93
2023/10/12 10:34:14;;;;;;;1.48;0.50;;;14.90;98.40;;;;;;4865733;29;20061;-93
2023/10/12 10:36:44;;;;;;;2.60;0.60;;;15.00;98.40;;;;;;4871894;29;20045;-94
2023/10/12 10:41:46;;;;;;;1.60;0.50;;;15.10;98.40;;;;;;4866881;29;20045;-89
2023/10/12 10:44:29;;;;;;;1.40;0.50;;;15.10;98.30;;;;;;4866291;29;20045;-92
2023/10/12 10:47:09;;;;;;;1.30;0.50;;;15.10;98.30;;;;;;4866528;29;20053;-93
2023/10/12 10:49:42;;;;;;;1.23;0.40;;;15.10;98.30;;;;;;4881297;29;20053;-87
2023/10/12 10:52:20;;;;;;;2.70;0.52;;;15.20;98.30;;;;;;4874070;29;20059;-88
2023/10/12 10:54:59;;;;;;;1.58;0.50;;;15.20;98.20;;;;;;4870170;29;20052;-88
2023/10/12 10:57:37;;;;;;;2.00;0.80;;;15.30;98.20;;;;;;4865865;29;20049;-88
2023/10/12 11:00:15;;;;;;;1.60;0.57;;;15.30;98.40;;;;;;4866375;29;20104;-88
2023/10/12 11:02:47;;;;;;;4.05;1.10;;;15.40;98.10;;;;;;4865652;29;20049;-87
2023/10/12 11:05:24;;;;;;;2.00;0.63;;;15.40;98.10;;;;;;4866235;29;20148;-89
2023/10/12 11:08:19;;;;;;;2.45;0.73;;;15.40;98.10;;;;;;4860024;29;20077;-89
2023/10/12 11:13:40;;;;;;;2.92;0.80;;;15.40;98.10;;;;;;4881437;29;20048;-91
2023/10/12 11:16:29;;;;;;;3.95;1.02;;;15.40;98.10;;;;;;4851139;29;20064;-92
2023/10/12 11:18:58;;;;;;;2.83;1.20;;;15.40;98.10;;;;;;4866984;29;20075;-92
2023/10/12 11:21:26;;;;;;;2.30;0.88;;;15.40;98.10;;;;;;4882208;29;20056;-92
2023/10/12 11:23:58;;;;;;;2.08;0.70;;;15.40;98.00;;;;;;4866963;29;20131;-93
2023/10/12 11:26:29;;;;;;;3.08;1.27;;;15.50;98.00;;;;;;4880720;29;20135;-90
2023/10/12 11:29:06;;;;;;;3.13;1.20;;;15.60;98.00;;;;;;4865572;29;20052;-88
2023/10/12 11:31:34;;;;;;;2.53;1.05;;;15.70;98.00;;;;;;4880910;29;20101;-91
2023/10/12 11:34:12;;;;;;;2.42;1.10;;;15.70;97.90;;;;;;4865812;29;20051;-89
2023/10/12 11:36:39;;;;;;;4.20;1.27;;;15.80;97.90;;;;;;4850185;29;20056;-89
2023/10/12 11:39:18;;;;;;;2.85;1.45;;;15.80;97.90;;;;;;4865729;29;20045;-92
2023/10/12 11:42:06;;;;;;;1.90;0.93;;;15.90;97.90;;;;;;4865370;29;20130;-91
2023/10/12 11:44:36;;;;;;;3.13;1.38;;;16.00;97.80;;;;;;4864388;29;20045;-92
2023/10/12 11:47:07;;;;;;;3.78;1.65;;;15.90;97.80;;;;;;4865823;29;20049;-91
2023/10/12 11:49:55;;;;;;;3.53;1.67;;;16.00;97.80;;;;;;4849858;29;20056;-90
2023/10/12 11:52:37;;;;;;;2.92;1.40;;;16.00;97.80;;;;;;4872463;29;20057;-91
2023/10/12 11:55:23;;;;;;;3.28;1.85;;;15.90;97.80;;;;;;4878929;29;20068;-94
2023/10/12 11:58:03;;;;;;;;;;;15.90;97.90;;;;;;4878343;29;20048;-92
2023/10/12 12:00:44;;;;;;;3.95;1.60;;;15.80;97.90;;;;;;4879681;29;19992;-88
2023/10/12 12:03:13;;;;;;;5.03;1.65;;;15.80;98.00;;;;;;4864853;29;20140;-89
2023/10/12 12:05:41;;;;;;;4.28;1.65;;;15.80;98.00;;;;;;4864642;29;20496;-89
2023/10/12 12:08:17;;;;;;;3.88;1.42;;;15.80;98.00;;;;;;4864723;29;20049;-88
2023/10/12 12:13:20;;;;;;;4.20;1.50;;;15.80;98.10;;;;;;4881530;29;20403;-89
2023/10/12 12:15:49;;;;;;;3.88;1.90;;;15.80;98.10;;;;;;4865027;29;20049;-89
2023/10/12 12:18:20;;;;;;;2.97;1.27;;;15.80;98.10;;;;;;4864736;29;20049;-88
2023/10/12 12:20:51;;;;;;;2.75;1.27;;;15.80;98.10;;;;;;4885773;29;20060;-89
2023/10/12 12:23:26;;;;;;;3.60;1.70;;;15.80;98.10;;;;;;4870810;29;20057;-91
2023/10/12 12:25:59;;;;;;;3.50;1.75;;;15.90;98.10;;;;;;4864660;29;20063;-89
2023/10/12 12:28:32;;;;;;;3.58;1.48;;;15.90;98.10;;;;;;4876479;29;20044;-88
2023/10/12 12:31:04;;;;;;;3.92;1.60;;;15.90;98.10;;;;;;4898218;29;20087;-85
2023/10/12 12:33:44;;;;;;;3.75;1.70;;;16.00;98.10;;;;;;4869965;29;20053;-87
2023/10/12 12:36:13;;;;;;;4.05;1.98;;;16.00;98.00;;;;;;4858528;29;20057;-89
2023/10/12 12:41:20;;;;;;;3.47;1.55;;;16.10;98.00;;;;;;4905924;29;20091;-88
2023/10/12 12:43:59;;;;;;;4.25;2.40;;;16.10;98.00;;;;;;4855847;29;20067;-96
2023/10/12 12:46:26;;;;;;;3.60;1.70;;;16.10;98.00;;;;;;4874373;29;20122;-87
2023/10/12 12:48:54;;;;;;;4.50;2.17;;;16.10;98.00;;;;;;4865520;29;20049;-89
2023/10/12 12:51:24;;;;;;;5.68;2.47;;;16.10;98.00;;;;;;4865304;29;20045;-89
2023/10/12 12:54:04;;;;;;;3.67;1.98;;;16.10;98.00;;;;;;4851269;29;20057;-96
2023/10/12 13:00:22;;;;;;;3.72;1.70;;;16.10;98.10;;;;;;4862018;29;20260;-91
2023/10/12 13:02:52;;;;;;;3.17;1.50;;;16.00;98.00;;;;;;4855140;29;20045;-93
2023/10/12 13:05:19;;;;;;;4.03;2.08;;;16.00;98.10;;;;;;4867279;29;20101;-89
2023/10/12 13:07:47;;;;;;;5.22;2.55;;;16.10;98.10;;;;;;4851839;29;20052;-90
2023/10/12 13:10:21;;;;;;;2.97;1.40;;;16.10;98.10;;;;;;4850101;29;20045;-93
2023/10/12 13:12:51;;;;;;;5.35;2.30;;;16.10;98.10;;;;;;4865828;29;20118;-93
2023/10/12 13:15:47;;;;;;;4.88;2.25;;;16.10;98.10;;;;;;4863717;29;20061;-90
2023/10/12 14:15:27;;;;;;;4.78;2.15;;;15.80;98.40;;;;;;4810890;29;19928;-90
2023/10/12 14:17:59;;;;;;;3.90;2.10;;;15.90;98.50;;;;;;4835128;29;20059;-89
2023/10/12 14:20:44;;;;;;;4.22;2.47;;;15.80;98.50;;;;;;4855450;29;20053;-94
2023/10/12 14:23:13;;;;;;;4.57;2.42;;;15.90;98.50;;;;;;4873159;29;20053;-86
2023/10/12 14:25:50;;;;;;;5.40;2.70;;;15.90;98.50;;;;;;4878502;29;20041;-88
2023/10/12 14:28:19;;;;;;;5.63;3.08;;;15.90;98.60;;;;;;4847368;29;20056;-92
2023/10/12 14:30:47;;;;;;;5.55;2.88;;;15.90;98.60;;;;;;4863872;29;20101;-87
2023/10/12 14:33:16;;;;;;;5.80;3.22;;;15.90;98.60;;;;;;4853950;29;20057;-86
2023/10/12 14:35:43;;;;;;;5.60;2.72;;;15.90;98.60;;;;;;4861609;29;20402;-86
2023/10/12 14:38:17;;;;;;;6.82;2.67;;;15.90;98.60;;;;;;4847847;29;20049;-86
2023/10/12 14:40:45;;;;;;;5.05;3.13;;;15.90;98.70;;;;;;4851312;29;20053;-86
2023/10/12 14:43:14;;;;;;;5.10;2.63;;;15.90;98.70;;;;;;4851564;29;20042;-87
2023/10/12 14:45:55;;;;;;;6.65;3.72;;;15.90;98.70;;;;;;4868937;29;20136;-86
2023/10/12 14:48:23;;;;;;;7.18;3.70;;;15.90;98.70;;;;;;4864615;29;20046;-87
2023/10/12 14:51:09;;;;;;;7.10;4.18;;;15.90;98.70;;;;;;4868096;29;20066;-87
2023/10/12 14:53:36;;;;;;;6.85;3.78;;;16.00;98.70;;;;;;4847363;29;20069;-87
2023/10/12 14:56:08;;;;;;;7.82;3.97;;;16.00;98.80;;;;;;4839176;29;20056;-88
2023/10/12 14:58:35;;;;;;;8.25;4.60;;;16.10;98.80;;;;;;4836954;29;20162;-87
2023/10/12 15:01:13;;;;;;;8.30;4.60;;;16.20;98.70;;;;;;4833286;29;20118;-87
2023/10/12 15:03:42;;;;;;;7.82;4.72;;;16.20;98.60;;;;;;4856843;29;20102;-88
2023/10/12 15:06:12;;;;;;;6.32;3.88;;;16.30;98.90;;;;;;4848341;29;20053;-89
2023/10/12 15:08:40;;;;;;;7.07;4.22;;;16.30;98.60;;;;;;4829017;29;20073;-88
2023/10/12 15:11:09;;;;;;;6.85;3.63;;;16.30;98.60;;;;;;4846979;29;20057;-87
2023/10/12 15:13:38;;;;;;;6.00;3.63;;;16.30;98.60;;;;;;4847159;29;20073;-87
2023/10/12 15:16:07;;;;;;;7.65;3.83;;;16.30;98.70;;;;;;4831849;29;20124;-87
2023/10/12 15:18:37;;;;;;;5.97;3.17;;;16.40;98.70;;;;;;4846836;29;20060;-86
2023/10/12 15:21:12;;;;;;;6.55;3.58;;;16.40;98.70;;;;;;4847890;29;20061;-87
2023/10/12 15:23:57;;;;;;;5.47;3.33;;;16.40;98.70;;;;;;4862394;29;20053;-85
2023/10/12 15:26:25;;;;;;;5.65;3.25;;;16.40;98.70;;;;;;4874680;29;20673;-86
2023/10/12 15:28:53;;;;;;;4.50;2.75;;;16.40;98.70;;;;;;4868428;29;20234;-85
2023/10/12 15:31:27;;;;;;;4.80;2.78;;;16.40;98.70;;;;;;4849932;29;20053;-86
2023/10/12 15:33:57;;;;;;;5.00;3.05;;;16.40;98.80;;;;;;4847379;29;20064;-91
2023/10/12 15:36:34;;;;;;;4.28;2.47;;;16.40;98.80;;;;;;4857463;29;20053;-93
2023/10/12 15:39:15;;;;;;;6.65;2.67;;;16.40;98.80;;;;;;4832727;29;20052;-96
2023/10/12 15:41:43;;;;;;;5.65;2.58;;;16.40;98.90;;;;;;4847806;29;20050;-93
2023/10/12 15:44:16;;;;;;;5.18;2.80;;;16.40;98.90;;;;;;4847368;29;20048;-91
2023/10/12 15:46:44;;;;;;;5.30;2.70;;;16.40;98.90;;;;;;4850402;29;20045;-93
2023/10/12 15:49:14;;;;;;;4.20;2.20;;;16.40;98.90;;;;;;4856583;29;20088;-90
2023/10/12 15:51:41;;;;;;;6.30;2.00;;;16.40;98.90;;;;;;4846313;29;20136;-88
2023/10/12 15:54:11;;;;;;;5.18;2.90;;;16.40;98.90;;;;;;4849500;29;20448;-91
2023/10/12 15:56:39;;;;;;;4.43;2.13;;;16.40;98.90;;;;;;4865310;29;20113;-91
2023/10/12 15:59:10;;;;;;;4.75;2.80;;;16.40;98.90;;;;;;4849380;29;20057;-88
2023/10/12 16:01:39;;;;;;;6.07;2.60;;;16.40;99.00;;;;;;4866473;29;20104;-95
2023/10/12 16:04:09;;;;;;;4.93;2.85;;;16.40;99.00;;;;;;4865468;29;20045;-93
2023/10/12 16:06:53;;;;;;;;;;;;;;;;;;;;;
2023/10/12 16:09:30;;;;;;;3.80;2.10;;;16.40;99.00;;;;;;4874579;29;20053;-93
2023/10/12 16:12:16;;;;;;;4.15;2.17;;;16.40;99.00;;;;;;4848200;29;20559;-91
2023/10/12 16:14:45;;;;;;;5.45;2.58;;;16.40;99.00;;;;;;4846952;29;20136;-94
2023/10/12 16:17:13;;;;;;;4.95;2.40;;;16.40;99.00;;;;;;4850702;29;20065;-91